Terminal Aerodrome Forecast
Issued by NWS Binghamton, NY

Home | Current Version | Previous Version | Text Only | Print | Product List | Glossary On
Versions: 1 2 3 4 5 6 7 8 9 10 11 12 13 14 15 16 17 18 19 20 21 22 23
000
FTUS41 KBGM 221100
TAFSYR
TAF
KSYR 221139Z 2212/2312 20010KT P6SM BKN100
     FM221800 22012KT P6SM OVC040
      TEMPO 2218/2221 -SHRA OVC030
     FM222100 22010KT P6SM -SHRA OVC030 WS020/24048KT
     FM230800 23008KT P6SM OVC030=

USA.gov is the U.S. government's official web portal to all federal, state and local government web resources and services.